createdAt,value
2024-02-29T00:00:13.379Z,87.40
2024-02-29T00:02:41.426Z,86.68
2024-02-29T00:05:12.992Z,87.00
2024-02-29T00:07:41.336Z,86.53
2024-02-29T00:10:10.288Z,86.63
2024-02-29T00:12:38.130Z,85.72
2024-02-29T00:15:06.828Z,86.37
2024-02-29T00:17:33.974Z,86.55
2024-02-29T00:20:01.301Z,86.23
2024-02-29T00:22:28.734Z,85.75
2024-02-29T00:24:56.657Z,85.56
2024-02-29T00:27:23.883Z,85.52
2024-02-29T00:29:51.660Z,85.27
2024-02-29T00:32:19.092Z,85.36
2024-02-29T00:34:46.564Z,85.54
2024-02-29T00:37:13.639Z,85.20
2024-02-29T00:39:40.965Z,85.05
2024-02-29T00:42:09.220Z,84.96
2024-02-29T00:44:36.381Z,84.69
2024-02-29T00:47:03.549Z,84.98
2024-02-29T00:49:30.715Z,85.01
2024-02-29T00:51:58.006Z,84.84
2024-02-29T00:54:26.313Z,84.79
2024-02-29T00:56:53.564Z,84.44
2024-02-29T00:59:20.731Z,84.47
2024-02-29T01:01:48.341Z,84.54
2024-02-29T01:04:16.012Z,84.81
2024-02-29T01:06:43.387Z,83.97
2024-02-29T01:09:10.798Z,84.19
2024-02-29T01:11:38.542Z,84.01
2024-02-29T01:14:05.908Z,84.29
2024-02-29T01:16:33.072Z,84.16
2024-02-29T01:19:02.255Z,83.67
2024-02-29T01:21:30.007Z,83.35
2024-02-29T01:23:57.170Z,83.82
2024-02-29T01:26:24.312Z,84.11
2024-02-29T01:28:52.094Z,83.83
2024-02-29T01:31:19.269Z,84.23
2024-02-29T01:33:46.616Z,83.27
2024-02-29T01:36:14.304Z,83.57
2024-02-29T01:38:41.690Z,84.00
2024-02-29T01:41:08.922Z,83.75
2024-02-29T01:43:36.358Z,83.53
2024-02-29T01:46:13.472Z,84.15
2024-02-29T01:48:42.796Z,84.15
2024-02-29T01:51:11.384Z,84.08
2024-02-29T01:53:39.178Z,84.48
2024-02-29T01:56:07.052Z,83.50
2024-02-29T01:58:36.364Z,83.33
2024-02-29T02:01:03.899Z,84.12
2024-02-29T02:03:31.216Z,83.29
2024-02-29T02:05:58.431Z,83.41
2024-02-29T02:08:29.353Z,83.62
2024-02-29T02:10:56.614Z,83.19
2024-02-29T02:13:24.562Z,83.02
2024-02-29T02:15:51.729Z,83.18
2024-02-29T02:18:18.922Z,82.66
2024-02-29T02:20:47.029Z,83.43
2024-02-29T02:23:14.123Z,83.35
2024-02-29T02:25:41.218Z,82.80
2024-02-29T02:28:08.424Z,83.25
2024-02-29T02:30:35.595Z,82.92
2024-02-29T02:33:03.719Z,82.75
2024-02-29T02:35:30.889Z,82.69
2024-02-29T02:37:58.046Z,83.09
2024-02-29T02:40:25.271Z,82.71
2024-02-29T02:42:52.571Z,82.86
2024-02-29T02:45:19.640Z,82.82
2024-02-29T02:47:46.855Z,82.69
2024-02-29T02:50:15.318Z,82.25
2024-02-29T02:52:42.664Z,82.17
2024-02-29T02:55:09.876Z,82.88
2024-02-29T02:57:37.150Z,82.28
2024-02-29T03:00:05.482Z,82.37
2024-02-29T03:02:32.554Z,82.73
2024-02-29T03:04:59.796Z,82.94
2024-02-29T03:07:27.055Z,82.97
2024-02-29T03:09:54.586Z,82.88
2024-02-29T03:12:21.799Z,82.98
2024-02-29T03:14:48.844Z,83.71
2024-02-29T03:17:16.055Z,83.80
2024-02-29T03:19:43.553Z,83.73
2024-02-29T03:22:10.731Z,83.91
2024-02-29T03:24:43.414Z,84.57
2024-02-29T03:27:12.378Z,84.26
2024-02-29T03:29:39.436Z,84.50
2024-02-29T03:32:06.910Z,84.80
2024-02-29T03:34:34.042Z,84.63
2024-02-29T03:37:01.171Z,85.16
2024-02-29T03:39:28.259Z,85.31
2024-02-29T03:41:55.566Z,85.30
2024-02-29T03:44:22.619Z,85.63
2024-02-29T03:46:49.832Z,86.08
2024-02-29T03:49:17.081Z,86.49
2024-02-29T03:51:44.513Z,86.82
2024-02-29T03:54:11.590Z,86.79
2024-02-29T03:56:38.899Z,87.02
2024-02-29T03:59:06.091Z,87.00
2024-02-29T04:01:33.228Z,87.07
2024-02-29T04:04:00.521Z,87.40
2024-02-29T04:06:27.649Z,87.73
2024-02-29T04:08:54.742Z,87.95
2024-02-29T04:11:21.938Z,88.10
2024-02-29T04:13:49.078Z,88.14
2024-02-29T04:16:17.165Z,88.34
2024-02-29T04:18:44.280Z,88.58
2024-02-29T04:21:11.447Z,88.54
2024-02-29T04:23:38.607Z,88.38
2024-02-29T04:26:05.658Z,88.73
2024-02-29T04:28:32.744Z,88.97
2024-02-29T04:30:59.980Z,89.28
2024-02-29T04:33:27.182Z,89.38
2024-02-29T04:35:54.345Z,89.56
2024-02-29T04:38:21.407Z,89.63
2024-02-29T04:40:48.616Z,89.67
2024-02-29T04:43:17.897Z,89.80
2024-02-29T04:45:45.358Z,89.99
2024-02-29T04:48:12.436Z,90.01
2024-02-29T04:50:39.527Z,90.23
2024-02-29T04:53:06.809Z,89.96
2024-02-29T04:55:35.691Z,89.70
2024-02-29T04:58:02.822Z,90.04
2024-02-29T05:00:29.949Z,90.17
2024-02-29T05:02:57.284Z,90.15
2024-02-29T05:05:24.437Z,90.02
2024-02-29T05:07:51.688Z,90.22
2024-02-29T05:10:18.846Z,90.13
2024-02-29T05:12:51.518Z,90.54
2024-02-29T05:15:24.161Z,90.27
2024-02-29T05:17:51.518Z,90.47
2024-02-29T05:20:18.643Z,90.29
2024-02-29T05:22:46.117Z,90.09
2024-02-29T05:25:13.464Z,90.13
2024-02-29T05:27:40.857Z,90.29
2024-02-29T05:30:08.360Z,90.05
2024-02-29T05:32:35.813Z,90.05
2024-02-29T05:35:03.062Z,90.24
2024-02-29T05:37:31.215Z,90.18
2024-02-29T05:40:01.432Z,90.24
2024-02-29T05:42:29.658Z,90.44
2024-02-29T05:44:56.812Z,90.31
2024-02-29T05:47:23.884Z,90.36
2024-02-29T05:49:50.963Z,90.12
2024-02-29T05:52:18.648Z,89.99
2024-02-29T05:54:45.796Z,90.09
2024-02-29T05:57:13.432Z,89.99
2024-02-29T05:59:40.508Z,90.08
2024-02-29T06:02:10.925Z,90.14
2024-02-29T06:04:38.297Z,90.16
2024-02-29T06:07:05.619Z,90.26
2024-02-29T06:09:32.791Z,90.35
2024-02-29T06:12:00.039Z,90.21
2024-02-29T06:14:27.106Z,90.30
2024-02-29T06:16:54.319Z,90.52
2024-02-29T06:19:21.391Z,90.83
2024-02-29T06:21:48.795Z,90.45
2024-02-29T06:24:20.029Z,90.79
2024-02-29T06:26:47.844Z,91.07
2024-02-29T06:29:15.060Z,90.92
2024-02-29T06:31:45.711Z,90.91
2024-02-29T06:34:12.855Z,90.82
2024-02-29T06:36:40.008Z,91.06
2024-02-29T06:39:09.419Z,90.78
2024-02-29T06:41:37.864Z,90.96
2024-02-29T06:44:07.570Z,90.93
2024-02-29T06:46:34.654Z,90.64
2024-02-29T06:49:02.922Z,90.92
2024-02-29T06:51:31.186Z,90.65
2024-02-29T06:53:58.293Z,90.95
2024-02-29T06:56:25.382Z,90.38
2024-02-29T06:58:52.487Z,90.69
2024-02-29T07:01:22.782Z,90.44
2024-02-29T07:03:50.214Z,90.83
2024-02-29T07:06:17.570Z,90.41
2024-02-29T07:08:45.048Z,90.40
2024-02-29T07:11:13.204Z,90.04
2024-02-29T07:13:41.848Z,90.38
2024-02-29T07:16:11.066Z,90.34
2024-02-29T07:18:38.319Z,90.32
2024-02-29T07:21:05.747Z,89.91
2024-02-29T07:23:33.800Z,90.16
2024-02-29T07:26:04.365Z,90.01
2024-02-29T07:28:32.148Z,90.01
2024-02-29T07:30:59.264Z,89.65
2024-02-29T07:33:26.650Z,89.54
2024-02-29T07:35:54.116Z,89.67
2024-02-29T07:38:21.220Z,90.00
2024-02-29T07:40:48.276Z,89.93
2024-02-29T07:43:15.673Z,89.66
2024-02-29T07:45:42.922Z,89.20
2024-02-29T07:48:11.215Z,89.61
2024-02-29T07:50:38.294Z,89.38
2024-02-29T07:53:05.531Z,89.63
2024-02-29T07:55:32.652Z,89.34
2024-02-29T07:58:01.441Z,89.88
2024-02-29T08:00:28.592Z,89.60
2024-02-29T08:02:56.265Z,89.74
2024-02-29T08:05:23.932Z,89.72
2024-02-29T08:07:51.079Z,89.85
2024-02-29T08:10:18.433Z,89.79
2024-02-29T08:12:46.007Z,89.76
2024-02-29T08:15:13.558Z,89.84
2024-02-29T08:17:40.693Z,89.51
2024-02-29T08:20:09.296Z,90.14
2024-02-29T08:22:36.731Z,89.03
2024-02-29T08:25:04.180Z,89.57
2024-02-29T08:27:31.248Z,88.65
2024-02-29T08:29:59.698Z,88.76
2024-02-29T08:32:26.937Z,88.88
2024-02-29T08:34:55.308Z,88.57
2024-02-29T08:37:22.476Z,88.84
2024-02-29T08:39:50.179Z,88.68
2024-02-29T08:42:17.607Z,88.28
2024-02-29T08:44:44.778Z,88.23
2024-02-29T08:47:11.874Z,88.15
2024-02-29T08:49:39.681Z,87.75
2024-02-29T08:52:09.542Z,87.50
2024-02-29T08:54:37.639Z,87.96
2024-02-29T08:57:06.000Z,87.95
2024-02-29T08:59:34.311Z,88.41
2024-02-29T09:02:04.381Z,88.50
2024-02-29T09:04:31.922Z,88.87
2024-02-29T09:06:59.173Z,89.20
2024-02-29T09:09:26.354Z,88.82
2024-02-29T09:11:53.517Z,88.70
2024-02-29T09:14:21.757Z,88.97
2024-02-29T09:16:49.140Z,88.89
2024-02-29T09:19:16.344Z,88.81
2024-02-29T09:21:44.123Z,88.78
2024-02-29T09:24:13.974Z,88.51
2024-02-29T09:26:42.958Z,88.45
2024-02-29T09:29:10.107Z,89.05
2024-02-29T09:31:37.539Z,89.06
2024-02-29T09:34:05.111Z,89.24
2024-02-29T09:36:33.016Z,89.42
2024-02-29T09:39:00.156Z,89.38
2024-02-29T09:41:41.482Z,89.77
2024-02-29T09:44:16.839Z,90.04
2024-02-29T09:46:48.238Z,90.72
2024-02-29T09:49:16.356Z,90.24
2024-02-29T09:51:45.427Z,90.33
2024-02-29T09:54:17.957Z,90.44
2024-02-29T09:56:49.593Z,90.83
2024-02-29T09:59:20.286Z,90.95
2024-02-29T10:01:53.973Z,90.44
2024-02-29T10:04:21.700Z,90.70
2024-02-29T10:06:49.038Z,90.60
2024-02-29T10:09:16.185Z,90.98
2024-02-29T10:11:44.883Z,90.71
2024-02-29T10:14:21.670Z,91.07
2024-02-29T10:16:52.889Z,91.14
2024-02-29T10:19:21.279Z,90.16
2024-02-29T10:21:49.409Z,89.84
2024-02-29T10:24:16.611Z,89.66
2024-02-29T10:26:43.703Z,89.92
2024-02-29T10:29:12.489Z,89.74
2024-02-29T10:31:40.137Z,89.41
2024-02-29T10:34:11.561Z,89.38
2024-02-29T10:36:40.552Z,89.33
2024-02-29T10:39:07.860Z,89.20
2024-02-29T10:41:38.488Z,89.15
2024-02-29T10:44:10.777Z,89.44
2024-02-29T10:46:41.224Z,89.36
2024-02-29T10:49:25.659Z,89.41
2024-02-29T10:52:04.240Z,89.10
2024-02-29T10:54:35.911Z,89.17
2024-02-29T10:57:09.031Z,88.40
2024-02-29T10:59:42.526Z,89.13
2024-02-29T11:02:10.546Z,89.28
2024-02-29T11:04:37.900Z,89.03
2024-02-29T11:07:06.572Z,88.40
2024-02-29T11:09:34.151Z,88.94
2024-02-29T11:12:19.378Z,88.95
2024-02-29T11:14:49.662Z,88.94
2024-02-29T11:17:17.107Z,88.79
2024-02-29T11:19:52.096Z,88.27
2024-02-29T11:22:34.531Z,89.19
2024-02-29T11:25:11.073Z,88.65
2024-02-29T11:27:39.237Z,88.88
2024-02-29T11:30:07.151Z,88.74
2024-02-29T11:32:35.346Z,88.60
2024-02-29T11:35:03.121Z,88.85
2024-02-29T11:37:33.984Z,89.20
2024-02-29T11:40:06.513Z,89.48
2024-02-29T11:42:35.334Z,88.92
2024-02-29T11:45:02.464Z,89.60
2024-02-29T11:47:29.618Z,89.33
2024-02-29T11:50:01.765Z,89.22
2024-02-29T11:52:29.469Z,89.38
2024-02-29T11:54:56.743Z,89.59
2024-02-29T11:57:27.318Z,89.65
2024-02-29T11:59:56.432Z,89.39
2024-02-29T12:02:24.510Z,89.22
2024-02-29T12:04:51.537Z,90.14
2024-02-29T12:07:18.812Z,89.46
2024-02-29T12:09:46.793Z,89.83
2024-02-29T12:12:17.193Z,88.68
2024-02-29T12:14:44.965Z,89.20
2024-02-29T12:17:12.407Z,89.35
2024-02-29T12:19:41.440Z,89.30
2024-02-29T12:22:15.264Z,89.26
2024-02-29T12:24:43.503Z,89.03
2024-02-29T12:27:10.788Z,89.79
2024-02-29T12:29:37.932Z,88.56
2024-02-29T12:32:05.703Z,89.44
2024-02-29T12:34:33.042Z,88.99
2024-02-29T12:37:00.707Z,89.20
2024-02-29T12:39:27.798Z,88.83
2024-02-29T12:41:55.726Z,88.86
2024-02-29T12:44:23.079Z,88.74
2024-02-29T12:46:59.146Z,88.28
2024-02-29T12:49:26.420Z,88.77
2024-02-29T12:51:56.000Z,88.17
2024-02-29T12:54:23.794Z,87.61
2024-02-29T12:56:51.014Z,88.63
2024-02-29T12:59:18.946Z,88.32
2024-02-29T13:01:54.507Z,88.76
2024-02-29T13:04:22.003Z,89.08
2024-02-29T13:06:49.553Z,88.84
2024-02-29T13:09:21.019Z,88.66
2024-02-29T13:11:48.513Z,88.61
2024-02-29T13:14:16.405Z,89.16
2024-02-29T13:16:43.603Z,89.21
2024-02-29T13:19:15.701Z,89.13
2024-02-29T13:21:43.805Z,89.04
2024-02-29T13:24:11.234Z,89.36
2024-02-29T13:26:38.382Z,88.95
2024-02-29T13:29:05.591Z,89.58
2024-02-29T13:31:32.733Z,89.83
2024-02-29T13:33:59.939Z,89.51
2024-02-29T13:36:27.141Z,89.97
2024-02-29T13:38:54.247Z,89.37
2024-02-29T13:41:21.348Z,89.37
2024-02-29T13:43:48.458Z,89.56
2024-02-29T13:46:17.651Z,89.29
2024-02-29T13:48:47.902Z,89.26
2024-02-29T13:51:15.433Z,89.27
2024-02-29T13:53:42.777Z,89.04
2024-02-29T13:56:10.031Z,88.95
2024-02-29T13:58:37.597Z,89.42
2024-02-29T14:01:06.804Z,89.60
2024-02-29T14:03:35.824Z,90.14
2024-02-29T14:06:02.998Z,89.40
2024-02-29T14:08:30.128Z,89.79
2024-02-29T14:10:57.290Z,89.84
2024-02-29T14:13:24.745Z,89.86
2024-02-29T14:15:51.865Z,90.13
2024-02-29T14:18:19.040Z,90.33
2024-02-29T14:20:46.184Z,89.59
2024-02-29T14:23:13.671Z,90.34
2024-02-29T14:25:40.856Z,89.73
2024-02-29T14:28:08.340Z,89.26
2024-02-29T14:30:37.988Z,89.68
2024-02-29T14:33:05.976Z,89.41
2024-02-29T14:35:36.535Z,89.34
2024-02-29T14:38:04.578Z,89.25
2024-02-29T14:40:31.718Z,89.13
2024-02-29T14:42:59.086Z,89.45
2024-02-29T14:45:26.462Z,88.89
2024-02-29T14:47:53.625Z,89.17
2024-02-29T14:50:20.763Z,88.91
2024-02-29T14:52:48.071Z,89.22
2024-02-29T14:55:15.234Z,88.37
2024-02-29T14:57:42.490Z,87.62
2024-02-29T15:00:15.757Z,87.75
2024-02-29T15:02:43.672Z,87.01
2024-02-29T15:05:10.954Z,87.98
2024-02-29T15:07:39.130Z,87.86
2024-02-29T15:10:07.871Z,88.59
2024-02-29T15:12:35.096Z,87.90
2024-02-29T15:15:02.233Z,87.99
2024-02-29T15:17:32.992Z,88.22
2024-02-29T15:20:01.787Z,88.27
2024-02-29T15:22:29.306Z,87.75
2024-02-29T15:24:56.506Z,88.23
2024-02-29T15:27:23.886Z,87.71
2024-02-29T15:29:51.318Z,88.13
2024-02-29T15:32:18.967Z,88.51
2024-02-29T15:34:47.921Z,88.24
2024-02-29T15:37:15.370Z,88.14
2024-02-29T15:39:42.512Z,88.30
2024-02-29T15:42:10.180Z,88.29
2024-02-29T15:44:37.327Z,88.36
2024-02-29T15:47:04.711Z,87.64
2024-02-29T15:49:31.846Z,87.76
2024-02-29T15:51:59.088Z,87.95
2024-02-29T15:54:27.672Z,88.34
2024-02-29T15:56:57.419Z,88.45
2024-02-29T15:59:24.538Z,89.08
2024-02-29T16:01:52.020Z,88.86
2024-02-29T16:04:20.999Z,88.95
2024-02-29T16:06:48.702Z,89.37
2024-02-29T16:09:17.051Z,89.10
2024-02-29T16:11:45.066Z,88.99
2024-02-29T16:14:12.568Z,89.30
2024-02-29T16:16:40.159Z,89.38
2024-02-29T16:19:07.351Z,89.71
2024-02-29T16:21:34.464Z,89.98
2024-02-29T16:24:01.585Z,89.51
2024-02-29T16:26:28.730Z,89.58
2024-02-29T16:28:56.684Z,89.80
2024-02-29T16:31:23.864Z,89.91
2024-02-29T16:33:51.087Z,89.72
2024-02-29T16:36:18.745Z,89.89
2024-02-29T16:38:45.778Z,89.71
2024-02-29T16:41:12.913Z,89.96
2024-02-29T16:43:40.309Z,90.13
2024-02-29T16:46:08.947Z,90.27
2024-02-29T16:48:37.126Z,89.92
2024-02-29T16:51:05.781Z,90.26
2024-02-29T16:53:33.123Z,90.31
2024-02-29T16:56:00.834Z,90.21
2024-02-29T16:58:27.963Z,90.24
2024-02-29T17:00:56.425Z,90.22
2024-02-29T17:03:23.839Z,90.39
2024-02-29T17:05:50.899Z,90.36
2024-02-29T17:08:17.983Z,90.40
2024-02-29T17:10:45.145Z,90.33
2024-02-29T17:13:12.581Z,90.59
2024-02-29T17:15:39.720Z,90.29
2024-02-29T17:18:06.883Z,90.38
2024-02-29T17:20:34.009Z,90.45
2024-02-29T17:23:01.074Z,89.82
2024-02-29T17:25:28.306Z,90.04
2024-02-29T17:27:57.426Z,90.46
2024-02-29T17:30:25.002Z,90.44
2024-02-29T17:32:54.416Z,90.58
2024-02-29T17:35:22.231Z,90.39
2024-02-29T17:37:49.799Z,90.78
2024-02-29T17:40:17.130Z,90.95
2024-02-29T17:42:44.483Z,90.89
2024-02-29T17:45:12.013Z,90.78
2024-02-29T17:47:41.747Z,90.74
2024-02-29T17:50:17.422Z,90.88
2024-02-29T17:52:49.072Z,91.09
2024-02-29T17:55:18.349Z,91.08
2024-02-29T17:57:47.067Z,90.86
2024-02-29T18:00:15.862Z,91.01
2024-02-29T18:02:44.412Z,90.96
2024-02-29T18:05:12.674Z,91.00
2024-02-29T18:07:47.374Z,91.18
2024-02-29T18:10:24.836Z,91.17
2024-02-29T18:12:52.634Z,91.30
2024-02-29T18:15:19.869Z,91.41
2024-02-29T18:17:46.993Z,91.52
2024-02-29T18:20:18.538Z,91.66
2024-02-29T18:22:46.453Z,91.37
2024-02-29T18:25:14.340Z,91.28
2024-02-29T18:27:41.511Z,91.42
2024-02-29T18:30:09.161Z,91.11
2024-02-29T18:32:36.335Z,91.22
2024-02-29T18:35:09.909Z,91.08
2024-02-29T18:37:38.631Z,91.21
2024-02-29T18:40:08.063Z,91.38
2024-02-29T18:42:35.402Z,90.97
2024-02-29T18:45:05.495Z,90.79
2024-02-29T18:47:37.240Z,91.01
2024-02-29T18:50:06.483Z,91.10
2024-02-29T18:52:33.830Z,90.80
2024-02-29T18:55:04.135Z,91.12
2024-02-29T18:57:33.276Z,91.55
2024-02-29T19:00:00.397Z,90.91
2024-02-29T19:02:27.605Z,90.94
2024-02-29T19:04:54.667Z,90.99
2024-02-29T19:07:24.417Z,91.04
2024-02-29T19:09:53.762Z,91.32
2024-02-29T19:12:23.581Z,90.89
2024-02-29T19:14:50.787Z,90.84
2024-02-29T19:17:17.855Z,91.18
2024-02-29T19:19:46.121Z,91.09
2024-02-29T19:22:13.497Z,91.09
2024-02-29T19:24:46.113Z,91.22
2024-02-29T19:27:14.054Z,91.19
2024-02-29T19:29:41.695Z,91.29
2024-02-29T19:32:09.718Z,91.18
2024-02-29T19:34:37.684Z,91.49
2024-02-29T19:37:04.831Z,91.39
2024-02-29T19:39:32.386Z,91.38
2024-02-29T19:41:59.782Z,91.58
2024-02-29T19:44:29.164Z,91.63
2024-02-29T19:47:00.317Z,91.21
2024-02-29T19:49:27.593Z,91.27
2024-02-29T19:51:57.387Z,90.86
2024-02-29T19:54:27.246Z,91.36
2024-02-29T19:56:56.772Z,91.11
2024-02-29T19:59:26.176Z,90.88
2024-02-29T20:01:53.365Z,90.72
2024-02-29T20:04:23.529Z,90.95
2024-02-29T20:06:55.612Z,91.09
2024-02-29T20:09:23.513Z,90.78
2024-02-29T20:11:51.092Z,91.11
2024-02-29T20:14:21.229Z,91.06
2024-02-29T20:16:48.525Z,91.24
2024-02-29T20:19:18.626Z,91.01
2024-02-29T20:21:47.815Z,91.19
2024-02-29T20:24:14.939Z,91.12
2024-02-29T20:26:45.765Z,90.93
2024-02-29T20:29:18.285Z,90.86
2024-02-29T20:31:45.719Z,90.95
2024-02-29T20:34:15.404Z,90.70
2024-02-29T20:36:44.471Z,91.16
2024-02-29T20:39:13.917Z,90.93
2024-02-29T20:41:41.574Z,91.02
2024-02-29T20:44:09.440Z,91.15
2024-02-29T20:46:37.234Z,91.05
2024-02-29T20:49:04.416Z,91.05
2024-02-29T20:51:31.951Z,90.94
2024-02-29T20:53:59.070Z,91.28
2024-02-29T20:56:26.153Z,91.03
2024-02-29T20:58:53.302Z,91.07
2024-02-29T21:01:20.402Z,90.59
2024-02-29T21:03:49.096Z,90.69
2024-02-29T21:06:19.014Z,90.75
2024-02-29T21:08:48.615Z,90.79
2024-02-29T21:11:15.764Z,91.02
2024-02-29T21:13:43.688Z,90.64
2024-02-29T21:16:10.893Z,90.86
2024-02-29T21:18:38.032Z,90.96
2024-02-29T21:21:06.216Z,90.38
2024-02-29T21:23:34.666Z,90.52
2024-02-29T21:26:03.568Z,90.37
2024-02-29T21:28:31.064Z,90.55
2024-02-29T21:30:58.234Z,90.48
2024-02-29T21:33:25.891Z,90.59
2024-02-29T21:35:55.732Z,90.69
2024-02-29T21:38:23.153Z,90.78
2024-02-29T21:40:50.926Z,90.21
2024-02-29T21:43:21.623Z,90.12
2024-02-29T21:45:48.783Z,90.03
2024-02-29T21:48:15.955Z,90.23
2024-02-29T21:50:43.125Z,90.23
2024-02-29T21:53:10.276Z,90.38
2024-02-29T21:55:37.380Z,90.26
2024-02-29T21:58:04.716Z,89.79
2024-02-29T22:00:34.573Z,89.69
2024-02-29T22:03:02.195Z,90.22
2024-02-29T22:05:29.966Z,89.97
2024-02-29T22:07:57.718Z,89.63
2024-02-29T22:10:25.903Z,90.24
2024-02-29T22:12:53.166Z,89.85
2024-02-29T22:15:20.321Z,89.96
2024-02-29T22:17:47.434Z,89.71
2024-02-29T22:20:14.881Z,89.52
2024-02-29T22:22:42.289Z,89.30
2024-02-29T22:25:09.539Z,89.38
2024-02-29T22:27:36.659Z,89.17
2024-02-29T22:30:03.953Z,89.00
2024-02-29T22:32:31.187Z,89.19
2024-02-29T22:34:58.303Z,88.67
2024-02-29T22:37:25.371Z,88.21
2024-02-29T22:39:52.503Z,88.84
2024-02-29T22:42:20.030Z,88.93
2024-02-29T22:44:47.128Z,89.10
2024-02-29T22:47:15.802Z,88.33
2024-02-29T22:49:43.996Z,88.03
2024-02-29T22:52:11.518Z,88.63
2024-02-29T22:54:38.692Z,88.31
2024-02-29T22:57:06.280Z,88.25
2024-02-29T22:59:33.363Z,87.94
2024-02-29T23:02:01.553Z,88.19
2024-02-29T23:04:28.725Z,87.58
2024-02-29T23:06:55.910Z,87.29
2024-02-29T23:09:23.042Z,87.16
2024-02-29T23:11:50.187Z,87.34
2024-02-29T23:14:17.273Z,86.49
2024-02-29T23:16:44.332Z,86.41
2024-02-29T23:19:11.509Z,86.87
2024-02-29T23:21:38.900Z,86.59
2024-02-29T23:24:06.164Z,86.41
2024-02-29T23:26:33.608Z,85.80
2024-02-29T23:29:01.032Z,85.42
2024-02-29T23:31:28.278Z,85.24
2024-02-29T23:33:55.500Z,84.77
2024-02-29T23:36:22.655Z,85.54
2024-02-29T23:38:49.746Z,84.87
2024-02-29T23:41:16.847Z,84.63
2024-02-29T23:43:44.997Z,84.75
2024-02-29T23:46:12.180Z,85.05
2024-02-29T23:48:39.394Z,85.36
2024-02-29T23:51:06.846Z,85.36
2024-02-29T23:53:34.206Z,85.70
2024-02-29T23:56:01.277Z,85.55
2024-02-29T23:58:28.504Z,85.84
